createdAt,value
2018-02-16T00:00:18.338Z,1010.78
2018-02-16T00:01:18.297Z,1010.82
2018-02-16T00:02:18.255Z,1010.81
2018-02-16T00:03:18.211Z,1010.79
2018-02-16T00:04:18.174Z,1010.78
2018-02-16T00:05:18.145Z,1010.82
2018-02-16T00:06:18.093Z,1010.82
2018-02-16T00:07:18.060Z,1010.77
2018-02-16T00:08:18.012Z,1010.78
2018-02-16T00:09:17.972Z,1010.76
2018-02-16T00:10:17.931Z,1010.89
2018-02-16T00:11:17.889Z,1010.90
2018-02-16T00:12:17.850Z,1010.90
2018-02-16T00:13:17.808Z,1010.84
2018-02-16T00:14:17.771Z,1010.91
2018-02-16T00:15:17.731Z,1010.85
2018-02-16T00:16:17.685Z,1010.87
2018-02-16T00:17:17.644Z,1010.87
2018-02-16T00:18:17.608Z,1010.88
2018-02-16T00:19:17.576Z,1010.94
2018-02-16T00:20:17.522Z,1010.92
2018-02-16T00:21:17.481Z,1010.95
2018-02-16T00:22:17.444Z,1010.94
2018-02-16T00:23:17.401Z,1010.97
2018-02-16T00:24:17.375Z,1010.94
2018-02-16T00:25:17.321Z,1010.93
2018-02-16T00:26:17.281Z,1010.94
2018-02-16T00:27:17.238Z,1010.94
2018-02-16T00:28:17.202Z,1010.92
2018-02-16T00:29:17.158Z,1010.95
2018-02-16T00:30:17.132Z,1010.95
2018-02-16T00:31:17.078Z,1011.01
2018-02-16T00:32:17.039Z,1011.01
2018-02-16T00:33:16.994Z,1010.99
2018-02-16T00:34:16.954Z,1011.03
2018-02-16T00:35:16.913Z,1011.03
2018-02-16T00:36:16.875Z,1011.07
2018-02-16T00:37:16.833Z,1011.00
2018-02-16T00:38:16.793Z,1011.07
2018-02-16T00:39:16.753Z,1011.05
2018-02-16T00:40:16.711Z,1011.14
2018-02-16T00:41:16.668Z,1011.15
2018-02-16T00:42:16.627Z,1011.21
2018-02-16T00:43:16.592Z,1011.18
2018-02-16T00:44:16.556Z,1011.25
2018-02-16T00:45:16.507Z,1011.26
2018-02-16T00:46:16.468Z,1011.28
2018-02-16T00:47:16.427Z,1011.24
2018-02-16T00:48:16.383Z,1011.25
2018-02-16T00:49:16.348Z,1011.32
2018-02-16T00:50:16.305Z,1011.29
2018-02-16T00:51:16.264Z,1011.33
2018-02-16T00:52:16.220Z,1011.41
2018-02-16T00:53:16.179Z,1011.46
2018-02-16T00:54:16.173Z,1011.44
2018-02-16T00:55:16.097Z,1011.43
2018-02-16T00:56:16.060Z,1011.46
2018-02-16T00:57:16.019Z,1011.44
2018-02-16T00:58:15.980Z,1011.48
2018-02-16T00:59:15.935Z,1011.38
2018-02-16T01:00:15.903Z,1011.44
2018-02-16T01:01:15.882Z,1011.53
2018-02-16T01:02:15.814Z,1011.53
2018-02-16T01:03:15.775Z,1011.57
2018-02-16T01:04:15.734Z,1011.48
2018-02-16T01:05:15.737Z,1011.59
2018-02-16T01:06:15.649Z,1011.54
2018-02-16T01:07:15.613Z,1011.53
2018-02-16T01:08:15.568Z,1011.57
2018-02-16T01:09:15.525Z,1011.63
2018-02-16T01:10:15.485Z,1011.62
2018-02-16T01:11:15.446Z,1011.67
2018-02-16T01:12:15.402Z,1011.65
2018-02-16T01:13:15.366Z,1011.67
2018-02-16T01:14:15.324Z,1011.68
2018-02-16T01:15:15.284Z,1011.70
2018-02-16T01:16:15.240Z,1011.72
2018-02-16T01:17:15.200Z,1011.72
2018-02-16T01:18:15.159Z,1011.74
2018-02-16T01:19:15.118Z,1011.69
2018-02-16T01:20:15.080Z,1011.75
2018-02-16T01:21:15.040Z,1011.70
2018-02-16T01:22:14.999Z,1011.65
2018-02-16T01:23:14.961Z,1011.70
2018-02-16T01:24:14.914Z,1011.70
2018-02-16T01:25:14.875Z,1011.63
2018-02-16T01:26:14.835Z,1011.66
2018-02-16T01:27:14.806Z,1011.68
2018-02-16T01:28:14.749Z,1011.73
2018-02-16T01:29:14.710Z,1011.69
2018-02-16T01:30:14.676Z,1011.70
2018-02-16T01:31:14.629Z,1011.68
2018-02-16T01:32:14.588Z,1011.71
2018-02-16T01:33:14.546Z,1011.74
2018-02-16T01:34:14.525Z,1011.73
2018-02-16T01:35:14.468Z,1011.75
2018-02-16T01:36:14.426Z,1011.75
2018-02-16T01:37:14.385Z,1011.77
2018-02-16T01:38:14.345Z,1011.80
2018-02-16T01:39:14.301Z,1011.80
2018-02-16T01:40:14.277Z,1011.80
2018-02-16T01:41:14.225Z,1011.83
2018-02-16T01:42:14.179Z,1011.82
2018-02-16T01:43:14.139Z,1011.88
2018-02-16T01:44:14.097Z,1011.90
2018-02-16T01:45:14.058Z,1011.86
2018-02-16T01:46:14.018Z,1011.90
2018-02-16T01:47:13.988Z,1011.90
2018-02-16T01:48:13.938Z,1011.96
2018-02-16T01:49:13.896Z,1011.97
2018-02-16T01:50:13.856Z,1012.02
2018-02-16T01:51:13.816Z,1012.00
2018-02-16T01:52:13.770Z,1012.04
2018-02-16T01:53:13.730Z,1012.07
2018-02-16T01:54:13.692Z,1012.04
2018-02-16T01:55:13.648Z,1012.01
2018-02-16T01:56:13.607Z,1012.05
2018-02-16T01:57:13.567Z,1012.06
2018-02-16T01:58:13.526Z,1012.12
2018-02-16T01:59:13.497Z,1012.11
2018-02-16T02:00:13.446Z,1012.13
2018-02-16T02:01:13.408Z,1012.14
2018-02-16T02:02:13.365Z,1012.15
2018-02-16T02:03:13.322Z,1012.16
2018-02-16T02:04:13.281Z,1012.15
2018-02-16T02:05:13.243Z,1012.18
2018-02-16T02:06:13.207Z,1012.16
2018-02-16T02:07:13.160Z,1012.18
2018-02-16T02:08:13.119Z,1012.21
2018-02-16T02:09:13.078Z,1012.19
2018-02-16T02:10:13.046Z,1012.20
2018-02-16T02:11:13.000Z,1012.19
2018-02-16T02:12:12.956Z,1012.26
2018-02-16T02:13:12.913Z,1012.22
2018-02-16T02:14:12.875Z,1012.30
2018-02-16T02:15:12.834Z,1012.29
2018-02-16T02:16:12.791Z,1012.31
2018-02-16T02:17:12.751Z,1012.32
2018-02-16T02:18:12.711Z,1012.31
2018-02-16T02:19:12.668Z,1012.28
2018-02-16T02:20:12.640Z,1012.30
2018-02-16T02:21:12.587Z,1012.29
2018-02-16T02:22:12.547Z,1012.25
2018-02-16T02:23:12.509Z,1012.28
2018-02-16T02:24:12.465Z,1012.30
2018-02-16T02:25:12.434Z,1012.21
2018-02-16T02:26:12.386Z,1012.30
2018-02-16T02:27:12.341Z,1012.28
2018-02-16T02:28:12.305Z,1012.31
2018-02-16T02:29:12.265Z,1012.29
2018-02-16T02:30:12.223Z,1012.33
2018-02-16T02:31:12.191Z,1012.34
2018-02-16T02:32:12.142Z,1012.33
2018-02-16T02:33:12.098Z,1012.29
2018-02-16T02:34:12.060Z,1012.35
2018-02-16T02:35:12.016Z,1012.25
2018-02-16T02:36:11.974Z,1012.33
2018-02-16T02:37:11.934Z,1012.43
2018-02-16T02:38:11.893Z,1012.30
2018-02-16T02:39:11.856Z,1012.37
2018-02-16T02:40:11.814Z,1012.44
2018-02-16T02:41:11.771Z,1012.44
2018-02-16T02:42:11.770Z,1012.42
2018-02-16T02:43:11.694Z,1012.49
2018-02-16T02:44:11.652Z,1012.54
2018-02-16T02:45:11.608Z,1012.51
2018-02-16T02:46:11.567Z,1012.56
2018-02-16T02:47:11.527Z,1012.56
2018-02-16T02:48:11.485Z,1012.60
2018-02-16T02:49:11.443Z,1012.61
2018-02-16T02:50:11.436Z,1012.55
2018-02-16T02:51:11.360Z,1012.53
2018-02-16T02:52:11.319Z,1012.59
2018-02-16T02:53:11.279Z,1012.60
2018-02-16T02:54:11.250Z,1012.64
2018-02-16T02:55:11.198Z,1012.67
2018-02-16T02:56:11.157Z,1012.63
2018-02-16T02:57:11.116Z,1012.61
2018-02-16T02:58:11.079Z,1012.62
2018-02-16T02:59:11.033Z,1012.63
2018-02-16T03:00:10.993Z,1012.63
2018-02-16T03:01:10.953Z,1012.61
2018-02-16T03:02:10.912Z,1012.64
2018-02-16T03:03:10.876Z,1012.68
2018-02-16T03:04:10.831Z,1012.61
2018-02-16T03:05:10.791Z,1012.68
2018-02-16T03:06:10.755Z,1012.72
2018-02-16T03:07:10.709Z,1012.75
2018-02-16T03:08:10.665Z,1012.78
2018-02-16T03:09:10.627Z,1012.83
2018-02-16T03:10:10.586Z,1012.82
2018-02-16T03:11:10.543Z,1012.91
2018-02-16T03:12:10.504Z,1012.94
2018-02-16T03:13:10.464Z,1012.98
2018-02-16T03:14:10.422Z,1012.87
2018-02-16T03:15:10.405Z,1012.96
2018-02-16T03:16:10.340Z,1013.01
2018-02-16T03:17:10.298Z,1013.02
2018-02-16T03:18:10.258Z,1013.02
2018-02-16T03:19:10.215Z,1013.06
2018-02-16T03:20:10.178Z,1013.03
2018-02-16T03:21:10.154Z,1013.10
2018-02-16T03:22:10.094Z,1013.01
2018-02-16T03:23:10.052Z,1013.09
2018-02-16T03:24:10.020Z,1013.06
2018-02-16T03:25:09.970Z,1013.03
2018-02-16T03:26:09.928Z,1012.99
2018-02-16T03:27:09.896Z,1012.99
2018-02-16T03:28:09.848Z,1013.00
2018-02-16T03:29:09.805Z,1013.06
2018-02-16T03:30:09.769Z,1013.08
2018-02-16T03:31:09.729Z,1013.05
2018-02-16T03:32:09.685Z,1013.01
2018-02-16T03:33:09.654Z,1013.07
2018-02-16T03:34:09.600Z,1013.09
2018-02-16T03:35:09.560Z,1013.13
2018-02-16T03:36:09.522Z,1013.16
2018-02-16T03:37:09.478Z,1013.10
2018-02-16T03:38:09.437Z,1013.09
2018-02-16T03:39:09.396Z,1013.15
2018-02-16T03:40:09.358Z,1013.11
2018-02-16T03:41:09.329Z,1013.18
2018-02-16T03:42:09.274Z,1013.18
2018-02-16T03:43:09.231Z,1013.12
2018-02-16T03:44:09.192Z,1013.18
2018-02-16T03:45:09.156Z,1013.18
2018-02-16T03:46:09.111Z,1013.18
2018-02-16T03:47:09.071Z,1013.21
2018-02-16T03:48:09.033Z,1013.20
2018-02-16T03:49:08.986Z,1013.29
2018-02-16T03:50:08.947Z,1013.34
2018-02-16T03:51:08.902Z,1013.35
2018-02-16T03:52:08.869Z,1013.26
2018-02-16T03:53:08.827Z,1013.31
2018-02-16T03:54:08.783Z,1013.32
2018-02-16T03:55:08.739Z,1013.31
2018-02-16T03:56:08.704Z,1013.31
2018-02-16T03:57:08.659Z,1013.31
2018-02-16T03:58:08.622Z,1013.29
2018-02-16T03:59:08.575Z,1013.35
2018-02-16T04:00:08.534Z,1013.36
2018-02-16T04:01:08.494Z,1013.41
2018-02-16T04:02:08.453Z,1013.37
2018-02-16T04:03:08.411Z,1013.37
2018-02-16T04:04:08.370Z,1013.45
2018-02-16T04:05:08.330Z,1013.48
2018-02-16T04:06:08.290Z,1013.41
2018-02-16T04:07:08.247Z,1013.49
2018-02-16T04:08:08.211Z,1013.49
2018-02-16T04:09:08.165Z,1013.42
2018-02-16T04:10:08.131Z,1013.48
2018-02-16T04:11:08.084Z,1013.42
2018-02-16T04:12:08.044Z,1013.43
2018-02-16T04:13:08.007Z,1013.43
2018-02-16T04:14:07.960Z,1013.39
2018-02-16T04:15:07.919Z,1013.45
2018-02-16T04:16:07.888Z,1013.40
2018-02-16T04:17:07.845Z,1013.49
2018-02-16T04:18:07.796Z,1013.49
2018-02-16T04:19:07.754Z,1013.47
2018-02-16T04:20:07.714Z,1013.46
2018-02-16T04:21:07.672Z,1013.52
2018-02-16T04:22:07.631Z,1013.56
2018-02-16T04:23:07.593Z,1013.56
2018-02-16T04:24:07.552Z,1013.50
2018-02-16T04:25:07.508Z,1013.57
2018-02-16T04:26:07.478Z,1013.59
2018-02-16T04:27:07.425Z,1013.61
2018-02-16T04:28:07.384Z,1013.60
2018-02-16T04:29:07.350Z,1013.62
2018-02-16T04:30:07.302Z,1013.59
2018-02-16T04:31:07.264Z,1013.58
2018-02-16T04:32:07.223Z,1013.62
2018-02-16T04:33:07.180Z,1013.60
2018-02-16T04:34:07.139Z,1013.58
2018-02-16T04:35:07.098Z,1013.60
2018-02-16T04:36:07.070Z,1013.63
2018-02-16T04:37:07.017Z,1013.58
2018-02-16T04:38:06.974Z,1013.63
2018-02-16T04:39:06.932Z,1013.61
2018-02-16T04:40:06.893Z,1013.62
2018-02-16T04:41:06.856Z,1013.61
2018-02-16T04:42:06.810Z,1013.67
2018-02-16T04:43:06.770Z,1013.62
2018-02-16T04:44:06.741Z,1013.61
2018-02-16T04:45:06.688Z,1013.60
2018-02-16T04:46:06.653Z,1013.63
2018-02-16T04:47:06.604Z,1013.68
2018-02-16T04:48:06.567Z,1013.69
2018-02-16T04:49:06.523Z,1013.69
2018-02-16T04:50:06.482Z,1013.73
2018-02-16T04:51:06.472Z,1013.73
2018-02-16T04:52:06.401Z,1013.77
2018-02-16T04:53:06.364Z,1013.79
2018-02-16T04:54:06.319Z,1013.71
2018-02-16T04:55:06.276Z,1013.67
2018-02-16T04:56:06.237Z,1013.82
2018-02-16T04:57:06.196Z,1013.83
2018-02-16T04:58:06.155Z,1013.85
2018-02-16T04:59:06.115Z,1013.92
2018-02-16T05:00:06.073Z,1013.91
2018-02-16T05:01:06.033Z,1014.01
2018-02-16T05:02:06.017Z,1014.01
2018-02-16T05:03:05.952Z,1014.03
2018-02-16T05:04:05.910Z,1014.12
2018-02-16T05:05:05.867Z,1014.07
2018-02-16T05:06:05.830Z,1014.12
2018-02-16T05:07:05.785Z,1014.14
2018-02-16T05:08:05.747Z,1014.11
2018-02-16T05:09:05.718Z,1014.12
2018-02-16T05:10:05.665Z,1014.21
2018-02-16T05:11:05.622Z,1014.23
2018-02-16T05:12:05.615Z,1014.23
2018-02-16T05:13:05.541Z,1014.24
2018-02-16T05:14:05.497Z,1014.11
2018-02-16T05:15:05.457Z,1014.25
2018-02-16T05:16:05.421Z,1014.27
2018-02-16T05:17:05.376Z,1014.28
2018-02-16T05:18:05.334Z,1014.31
2018-02-16T05:19:05.291Z,1014.27
2018-02-16T05:20:05.252Z,1014.28
2018-02-16T05:21:05.212Z,1014.19
2018-02-16T05:22:05.172Z,1014.21
2018-02-16T05:23:05.129Z,1014.26
2018-02-16T05:24:05.092Z,1014.24
2018-02-16T05:25:05.048Z,1014.26
2018-02-16T05:26:05.016Z,1014.34
2018-02-16T05:27:04.966Z,1014.25
2018-02-16T05:28:04.924Z,1014.33
2018-02-16T05:29:04.883Z,1014.24
2018-02-16T05:30:04.842Z,1014.37
2018-02-16T05:31:04.802Z,1014.31
2018-02-16T05:32:04.762Z,1014.37
2018-02-16T05:33:04.719Z,1014.35
2018-02-16T05:34:04.678Z,1014.40
2018-02-16T05:35:04.635Z,1014.43
2018-02-16T05:36:04.607Z,1014.46
2018-02-16T05:37:04.555Z,1014.43
2018-02-16T05:38:04.516Z,1014.40
2018-02-16T05:39:04.472Z,1014.44
2018-02-16T05:40:04.430Z,1014.45
2018-02-16T05:41:04.390Z,1014.50
2018-02-16T05:42:04.348Z,1014.49
2018-02-16T05:43:04.309Z,1014.41
2018-02-16T05:44:04.266Z,1014.59
2018-02-16T05:45:04.225Z,1014.53
2018-02-16T05:46:04.192Z,1014.46
2018-02-16T05:47:04.141Z,1014.62
2018-02-16T05:48:04.101Z,1014.63
2018-02-16T05:49:04.063Z,1014.66
2018-02-16T05:50:04.049Z,1014.63
2018-02-16T05:51:03.979Z,1014.62
2018-02-16T05:52:03.940Z,1014.69
2018-02-16T05:53:03.898Z,1014.62
2018-02-16T05:54:03.859Z,1014.68
2018-02-16T05:55:03.814Z,1014.69
2018-02-16T05:56:03.771Z,1014.69
2018-02-16T05:57:04.198Z,1014.68
2018-02-16T05:58:03.690Z,1014.72
2018-02-16T05:59:03.648Z,1014.70
2018-02-16T06:00:03.610Z,1014.73
2018-02-16T06:01:03.568Z,1014.68
2018-02-16T06:02:03.532Z,1014.81
2018-02-16T06:03:03.489Z,1014.75
2018-02-16T06:04:03.446Z,1014.81
2018-02-16T06:05:03.404Z,1014.80
2018-02-16T06:06:03.360Z,1014.73
2018-02-16T06:07:03.317Z,1014.73
2018-02-16T06:08:03.277Z,1014.73
2018-02-16T06:09:03.239Z,1014.76
2018-02-16T06:10:03.199Z,1014.76
2018-02-16T06:11:03.156Z,1014.73
2018-02-16T06:12:03.115Z,1014.78
2018-02-16T06:13:03.074Z,1014.72
2018-02-16T06:14:03.032Z,1014.81
2018-02-16T06:15:02.991Z,1014.81
2018-02-16T06:16:02.978Z,1014.87
2018-02-16T06:17:02.906Z,1014.86
2018-02-16T06:18:02.864Z,1014.93
2018-02-16T06:19:02.823Z,1014.94
2018-02-16T06:20:02.802Z,1014.98
2018-02-16T06:21:02.745Z,1014.98
2018-02-16T06:22:02.700Z,1014.97
2018-02-16T06:23:02.665Z,1015.00
2018-02-16T06:24:02.621Z,1014.97
2018-02-16T06:25:02.576Z,1015.03
2018-02-16T06:26:02.546Z,1015.02
2018-02-16T06:27:02.492Z,1015.01
2018-02-16T06:28:02.454Z,1015.03
2018-02-16T06:29:02.411Z,1014.95
2018-02-16T06:30:02.375Z,1014.98
2018-02-16T06:31:02.353Z,1014.92
2018-02-16T06:32:02.285Z,1015.00
2018-02-16T06:33:02.247Z,1015.07
2018-02-16T06:34:02.208Z,1015.02
2018-02-16T06:35:02.162Z,1015.07
2018-02-16T06:36:02.132Z,1015.13
2018-02-16T06:37:02.082Z,1015.08
2018-02-16T06:38:02.038Z,1015.02
2018-02-16T06:39:01.998Z,1015.03
2018-02-16T06:40:01.956Z,1015.14
2018-02-16T06:41:01.919Z,1015.11
2018-02-16T06:42:01.873Z,1015.05
2018-02-16T06:43:01.832Z,1015.06
2018-02-16T06:44:01.792Z,1015.17
2018-02-16T06:45:01.762Z,1015.21
2018-02-16T06:46:01.714Z,1015.11
2018-02-16T06:47:01.666Z,1015.19
2018-02-16T06:48:01.627Z,1015.13
2018-02-16T06:49:01.584Z,1015.18
2018-02-16T06:50:01.544Z,1015.13
2018-02-16T06:51:01.500Z,1015.25
2018-02-16T06:52:01.479Z,1015.15
2018-02-16T06:53:01.427Z,1015.22
2018-02-16T06:54:01.379Z,1015.27
2018-02-16T06:55:01.336Z,1015.25
2018-02-16T06:56:01.307Z,1015.27
2018-02-16T06:57:01.255Z,1015.33
2018-02-16T06:58:01.213Z,1015.34
2018-02-16T06:59:01.170Z,1015.35
2018-02-16T07:00:01.148Z,1015.30
2018-02-16T07:01:01.100Z,1015.26
2018-02-16T07:02:01.083Z,1015.34
2018-02-16T07:03:01.009Z,1015.38
2018-02-16T07:04:00.973Z,1015.37
2018-02-16T07:05:00.925Z,1015.30
2018-02-16T07:06:00.888Z,1015.31
2018-02-16T07:07:00.842Z,1015.34
2018-02-16T07:08:00.801Z,1015.40
2018-02-16T07:09:00.761Z,1015.29
2018-02-16T07:10:00.724Z,1015.44
2018-02-16T07:11:00.687Z,1015.21
2018-02-16T07:12:00.686Z,1015.31
2018-02-16T07:13:00.618Z,1015.36
2018-02-16T07:14:00.561Z,1015.36
2018-02-16T07:15:00.517Z,1015.41
2018-02-16T07:16:00.476Z,1015.35
2018-02-16T07:17:00.436Z,1015.46
2018-02-16T07:18:00.396Z,1015.46
2018-02-16T07:19:00.353Z,1015.51
2018-02-16T07:20:00.325Z,1015.45
2018-02-16T07:21:00.275Z,1015.46
2018-02-16T07:22:00.239Z,1015.52
2018-02-16T07:23:00.197Z,1015.59
2018-02-16T07:24:00.156Z,1015.56
2018-02-16T07:25:00.115Z,1015.62
2018-02-16T07:26:00.078Z,1015.56
2018-02-16T07:27:00.036Z,1015.57
2018-02-16T07:28:00.001Z,1015.55
2018-02-16T07:28:59.957Z,1015.55
2018-02-16T07:29:59.923Z,1015.64
2018-02-16T07:30:59.888Z,1015.68
2018-02-16T07:31:59.847Z,1015.67
2018-02-16T07:32:59.800Z,1015.76
2018-02-16T07:33:59.763Z,1015.70
2018-02-16T07:34:59.725Z,1015.74
2018-02-16T07:35:59.686Z,1015.83
2018-02-16T07:36:59.648Z,1015.85
2018-02-16T07:37:59.609Z,1015.81
2018-02-16T07:38:59.572Z,1015.88
2018-02-16T07:39:59.531Z,1015.87
2018-02-16T07:40:59.496Z,1015.89
2018-02-16T07:41:59.461Z,1015.91
2018-02-16T07:42:59.418Z,1015.94
2018-02-16T07:43:59.381Z,1015.94
2018-02-16T07:44:59.363Z,1015.98
2018-02-16T07:45:59.310Z,1016.00
2018-02-16T07:46:59.272Z,1015.92
2018-02-16T07:47:59.235Z,1015.97
2018-02-16T07:48:59.199Z,1016.02
2018-02-16T07:49:59.160Z,1016.02
2018-02-16T07:50:59.161Z,1016.01
2018-02-16T07:51:59.089Z,1016.09
2018-02-16T07:52:59.055Z,1016.11
2018-02-16T07:53:59.019Z,1016.15
2018-02-16T07:54:58.977Z,1016.15
2018-02-16T07:55:58.944Z,1016.19
2018-02-16T07:56:58.911Z,1016.07
2018-02-16T07:57:58.878Z,1016.17
2018-02-16T07:58:58.836Z,1016.18
2018-02-16T07:59:58.804Z,1016.21
2018-02-16T08:00:58.771Z,1016.15
2018-02-16T08:01:58.735Z,1016.24
2018-02-16T08:02:58.696Z,1016.24
2018-02-16T08:03:58.669Z,1016.30
2018-02-16T08:04:58.628Z,1016.22
2018-02-16T08:05:58.599Z,1016.27
2018-02-16T08:06:58.559Z,1016.25
2018-02-16T08:07:58.524Z,1016.28
2018-02-16T08:08:58.492Z,1016.22
2018-02-16T08:09:58.464Z,1016.22
2018-02-16T08:10:58.425Z,1016.23
2018-02-16T08:11:58.392Z,1016.19
2018-02-16T08:12:58.355Z,1016.30
2018-02-16T08:13:58.320Z,1016.27
2018-02-16T08:14:58.289Z,1016.31
2018-02-16T08:15:58.253Z,1016.36
2018-02-16T08:16:58.218Z,1016.46
2018-02-16T08:17:58.183Z,1016.42
2018-02-16T08:18:58.143Z,1016.44
2018-02-16T08:19:58.110Z,1016.54
2018-02-16T08:20:58.076Z,1016.42
2018-02-16T08:21:58.037Z,1016.56
2018-02-16T08:22:58.010Z,1016.51
2018-02-16T08:23:57.971Z,1016.62
2018-02-16T08:24:57.932Z,1016.64
2018-02-16T08:25:57.895Z,1016.60
2018-02-16T08:26:57.859Z,1016.69
2018-02-16T08:27:57.822Z,1016.72
2018-02-16T08:28:57.790Z,1016.68
2018-02-16T08:29:57.754Z,1016.71
2018-02-16T08:30:57.719Z,1016.70
2018-02-16T08:31:57.681Z,1016.71
2018-02-16T08:32:57.646Z,1016.67
2018-02-16T08:33:57.612Z,1016.70
2018-02-16T08:34:57.574Z,1016.62
2018-02-16T08:35:57.538Z,1016.72
2018-02-16T08:36:57.501Z,1016.70
2018-02-16T08:37:57.480Z,1016.63
2018-02-16T08:38:57.426Z,1016.75
2018-02-16T08:39:57.409Z,1016.76
2018-02-16T08:40:57.356Z,1016.78
2018-02-16T08:41:57.318Z,1016.76
2018-02-16T08:42:57.282Z,1016.87
2018-02-16T08:43:57.245Z,1016.85
2018-02-16T08:44:57.210Z,1016.92
2018-02-16T08:45:57.172Z,1016.91
2018-02-16T08:46:57.135Z,1016.94
2018-02-16T08:47:57.100Z,1016.95
2018-02-16T08:48:57.072Z,1016.96
2018-02-16T08:49:57.029Z,1016.99
2018-02-16T08:50:56.987Z,1016.99
2018-02-16T08:51:56.952Z,1017.00
2018-02-16T08:52:56.919Z,1017.03
2018-02-16T08:53:56.883Z,1017.07
2018-02-16T08:54:56.841Z,1017.05
2018-02-16T08:55:56.807Z,1017.11
2018-02-16T08:56:56.773Z,1017.15
2018-02-16T08:57:56.738Z,1017.14
2018-02-16T08:58:56.697Z,1017.18
2018-02-16T08:59:56.661Z,1017.20
2018-02-16T09:00:56.627Z,1017.17
2018-02-16T09:01:56.586Z,1017.24
2018-02-16T09:02:56.551Z,1017.22
2018-02-16T09:03:56.516Z,1017.26
2018-02-16T09:04:56.475Z,1017.30
2018-02-16T09:05:56.444Z,1017.35
2018-02-16T09:06:56.417Z,1017.34
2018-02-16T09:07:56.373Z,1017.22
2018-02-16T09:08:56.336Z,1017.37
2018-02-16T09:09:56.303Z,1017.44
2018-02-16T09:10:56.261Z,1017.41
2018-02-16T09:11:56.231Z,1017.32
2018-02-16T09:12:56.193Z,1017.34
2018-02-16T09:13:56.160Z,1017.37
2018-02-16T09:14:56.127Z,1017.45
2018-02-16T09:15:56.092Z,1017.42
2018-02-16T09:16:56.057Z,1017.42
2018-02-16T09:17:56.025Z,1017.44
2018-02-16T09:18:55.998Z,1017.48
2018-02-16T09:19:55.964Z,1017.43
2018-02-16T09:20:55.927Z,1017.47
2018-02-16T09:21:55.900Z,1017.48
2018-02-16T09:22:55.868Z,1017.50
2018-02-16T09:23:55.839Z,1017.48
2018-02-16T09:24:55.816Z,1017.56
2018-02-16T09:25:55.777Z,1017.56
2018-02-16T09:26:55.754Z,1017.54
2018-02-16T09:27:55.720Z,1017.52
2018-02-16T09:28:55.695Z,1017.48
2018-02-16T09:29:55.669Z,1017.51
2018-02-16T09:30:55.641Z,1017.55
2018-02-16T09:31:55.636Z,1017.72
2018-02-16T09:32:55.584Z,1017.68
2018-02-16T09:33:55.553Z,1017.59
2018-02-16T09:34:55.533Z,1017.63
2018-02-16T09:35:55.500Z,1017.78
2018-02-16T09:36:55.472Z,1017.71
2018-02-16T09:37:55.442Z,1017.72
2018-02-16T09:38:55.414Z,1017.79
2018-02-16T09:39:55.395Z,1017.89
2018-02-16T09:40:55.363Z,1017.85
2018-02-16T09:41:55.339Z,1017.92
2018-02-16T09:42:55.307Z,1017.85
2018-02-16T09:43:55.281Z,1017.88
2018-02-16T09:44:55.258Z,1017.89
2018-02-16T09:45:55.229Z,1017.88
2018-02-16T09:46:55.202Z,1017.83
2018-02-16T09:47:55.177Z,1017.88
2018-02-16T09:48:55.159Z,1017.87
2018-02-16T09:49:55.171Z,1017.80
2018-02-16T09:50:55.104Z,1017.82
2018-02-16T09:51:55.080Z,1017.87
2018-02-16T09:52:55.055Z,1017.83
2018-02-16T09:53:55.029Z,1017.96
2018-02-16T09:54:55.006Z,1017.96
2018-02-16T09:55:54.980Z,1017.93
2018-02-16T09:56:54.970Z,1017.93
2018-02-16T09:57:54.933Z,1017.94
2018-02-16T09:58:54.912Z,1017.98
2018-02-16T09:59:54.882Z,1017.98
2018-02-16T10:00:54.862Z,1017.99
2018-02-16T10:01:54.838Z,1017.93
2018-02-16T10:02:54.809Z,1017.95
2018-02-16T10:03:54.792Z,1017.90
2018-02-16T10:04:54.765Z,1017.85
2018-02-16T10:05:54.740Z,1017.83
2018-02-16T10:06:54.716Z,1017.83
2018-02-16T10:07:54.690Z,1017.95
2018-02-16T10:08:54.667Z,1017.94
2018-02-16T10:09:54.649Z,1017.96
2018-02-16T10:10:54.617Z,1017.91
2018-02-16T10:11:54.593Z,1017.91
2018-02-16T10:12:54.582Z,1017.85
2018-02-16T10:13:54.547Z,1017.96
2018-02-16T10:14:54.833Z,1017.83
2018-02-16T10:15:54.496Z,1017.92
2018-02-16T10:16:54.475Z,1017.75
2018-02-16T10:17:54.455Z,1017.59
2018-02-16T10:18:54.423Z,1017.96
2018-02-16T10:19:54.398Z,1017.93
2018-02-16T10:20:54.375Z,1017.88
2018-02-16T10:21:54.350Z,1017.98
2018-02-16T10:22:54.329Z,1017.98
2018-02-16T10:23:54.308Z,1017.92
2018-02-16T10:24:54.278Z,1017.89
2018-02-16T10:25:54.252Z,1018.00
2018-02-16T10:26:54.230Z,1017.81
2018-02-16T10:27:54.209Z,1017.94
2018-02-16T10:28:54.180Z,1018.07
2018-02-16T10:29:54.158Z,1018.02
2018-02-16T10:30:54.142Z,1017.89
2018-02-16T10:31:54.110Z,1017.98
2018-02-16T10:32:54.087Z,1017.97
2018-02-16T10:33:54.063Z,1018.01
2018-02-16T10:34:54.036Z,1017.99
2018-02-16T10:35:54.017Z,1017.66
2018-02-16T10:36:53.990Z,1018.01
2018-02-16T10:37:53.972Z,1017.76
2018-02-16T10:38:53.941Z,1018.02
2018-02-16T10:39:53.919Z,1017.79
2018-02-16T10:40:53.898Z,1018.05
2018-02-16T10:41:53.873Z,1017.98
2018-02-16T10:42:53.854Z,1017.99
2018-02-16T10:43:53.828Z,1017.89
2018-02-16T10:44:53.799Z,1017.87
2018-02-16T10:45:53.780Z,1018.07
2018-02-16T10:46:53.752Z,1017.62
2018-02-16T10:47:53.728Z,1018.09
2018-02-16T10:48:53.702Z,1018.10
2018-02-16T10:49:53.682Z,1018.04
2018-02-16T10:50:53.661Z,1018.02
2018-02-16T10:51:53.634Z,1018.03
2018-02-16T10:52:53.622Z,1018.10
2018-02-16T10:53:53.586Z,1018.08
2018-02-16T10:54:53.561Z,1018.02
2018-02-16T10:55:53.536Z,1018.07
2018-02-16T10:56:53.606Z,1018.10
2018-02-16T10:57:53.492Z,1018.13
2018-02-16T10:58:53.465Z,1018.12
2018-02-16T10:59:53.445Z,1018.09
2018-02-16T11:00:53.422Z,1018.16
2018-02-16T11:01:53.405Z,1018.10
2018-02-16T11:02:53.376Z,1018.09
2018-02-16T11:03:53.354Z,1018.04
2018-02-16T11:04:53.331Z,1018.10
2018-02-16T11:05:53.310Z,1018.15
2018-02-16T11:06:53.287Z,1018.15
2018-02-16T11:07:53.260Z,1018.13
2018-02-16T11:08:53.247Z,1018.10
2018-02-16T11:09:53.216Z,1018.03
2018-02-16T11:10:53.192Z,1018.17
2018-02-16T11:11:53.174Z,1018.11
2018-02-16T11:12:53.151Z,1017.78
2018-02-16T11:13:53.131Z,1018.17
2018-02-16T11:14:53.105Z,1018.22
2018-02-16T11:15:53.080Z,1017.69
2018-02-16T11:16:53.061Z,1017.73
2018-02-16T11:17:53.053Z,1018.19
2018-02-16T11:18:53.015Z,1018.21
2018-02-16T11:19:52.988Z,1018.20
2018-02-16T11:20:52.965Z,1018.23
2018-02-16T11:21:52.941Z,1018.24
2018-02-16T11:22:52.914Z,1018.18
2018-02-16T11:23:52.893Z,1018.21
2018-02-16T11:24:52.870Z,1018.25
2018-02-16T11:25:52.854Z,1018.28
2018-02-16T11:26:52.821Z,1018.26
2018-02-16T11:27:52.802Z,1018.22
2018-02-16T11:28:52.778Z,1018.27
2018-02-16T11:29:52.754Z,1018.24
2018-02-16T11:30:52.731Z,1018.33
2018-02-16T11:31:52.714Z,1018.34
2018-02-16T11:32:52.688Z,1018.02
2018-02-16T11:33:52.667Z,1017.72
2018-02-16T11:34:52.635Z,1018.28
2018-02-16T11:35:52.612Z,1018.35
2018-02-16T11:36:52.595Z,1018.36
2018-02-16T11:37:52.575Z,1018.35
2018-02-16T11:38:52.554Z,1018.33
2018-02-16T11:39:52.525Z,1018.37
2018-02-16T11:40:52.501Z,1018.39
2018-02-16T11:41:52.479Z,1018.38
2018-02-16T11:42:52.455Z,1018.41
2018-02-16T11:43:52.431Z,1018.40
2018-02-16T11:44:52.412Z,1018.42
2018-02-16T11:45:52.392Z,1018.23
2018-02-16T11:46:52.367Z,1018.29
2018-02-16T11:47:52.342Z,1018.38
2018-02-16T11:48:52.319Z,1018.47
2018-02-16T11:49:52.297Z,1018.49
2018-02-16T11:50:52.272Z,1018.51
2018-02-16T11:51:52.251Z,1018.41
2018-02-16T11:52:52.231Z,1018.38
2018-02-16T11:53:52.208Z,1018.40
2018-02-16T11:54:52.187Z,1018.44
2018-02-16T11:55:52.161Z,1018.43
2018-02-16T11:56:52.138Z,1018.43
2018-02-16T11:57:52.113Z,1018.42
2018-02-16T11:58:52.099Z,1018.44
2018-02-16T11:59:52.091Z,1018.48
2018-02-16T12:00:52.057Z,1018.53
2018-02-16T12:01:52.049Z,1018.48
2018-02-16T12:02:52.015Z,1018.43
2018-02-16T12:03:51.988Z,1018.36
2018-02-16T12:04:51.972Z,1018.44